sensor_id;sensor_type;location;lat;lon;timestamp;P1;durP1;ratioP1;P2;durP2;ratioP2
4166;SDS011;2097;51.104;7.150;2022-12-07T00:01:27;59.87;;;2.90;;
4166;SDS011;2097;51.104;7.150;2022-12-07T00:03:55;60.27;;;3.10;;
4166;SDS011;2097;51.104;7.150;2022-12-07T00:06:29;60.23;;;3.23;;
4166;SDS011;2097;51.104;7.150;2022-12-07T00:08:58;60.63;;;2.93;;
4166;SDS011;2097;51.104;7.150;2022-12-07T00:11:25;61.87;;;3.47;;
4166;SDS011;2097;51.104;7.150;2022-12-07T00:13:53;60.60;;;3.37;;
4166;SDS011;2097;51.104;7.150;2022-12-07T00:16:22;61.00;;;3.20;;
4166;SDS011;2097;51.104;7.150;2022-12-07T00:18:50;60.47;;;2.90;;
4166;SDS011;2097;51.104;7.150;2022-12-07T00:21:17;60.47;;;3.40;;
4166;SDS011;2097;51.104;7.150;2022-12-07T00:23:47;60.30;;;3.10;;
4166;SDS011;2097;51.104;7.150;2022-12-07T00:26:16;59.93;;;2.93;;
4166;SDS011;2097;51.104;7.150;2022-12-07T00:28:44;60.63;;;3.10;;
4166;SDS011;2097;51.104;7.150;2022-12-07T00:31:13;60.97;;;2.90;;
4166;SDS011;2097;51.104;7.150;2022-12-07T00:33:42;60.07;;;3.10;;
4166;SDS011;2097;51.104;7.150;2022-12-07T00:36:10;60.47;;;3.10;;
4166;SDS011;2097;51.104;7.150;2022-12-07T00:38:38;60.90;;;3.20;;
4166;SDS011;2097;51.104;7.150;2022-12-07T00:41:06;61.80;;;3.27;;
4166;SDS011;2097;51.104;7.150;2022-12-07T00:43:37;60.40;;;3.20;;
4166;SDS011;2097;51.104;7.150;2022-12-07T00:46:04;64.43;;;3.40;;
4166;SDS011;2097;51.104;7.150;2022-12-07T00:48:31;62.70;;;3.13;;
4166;SDS011;2097;51.104;7.150;2022-12-07T00:50:58;60.60;;;3.30;;
4166;SDS011;2097;51.104;7.150;2022-12-07T00:53:25;60.97;;;3.43;;
4166;SDS011;2097;51.104;7.150;2022-12-07T00:55:52;66.67;;;3.80;;
4166;SDS011;2097;51.104;7.150;2022-12-07T00:58:20;63.00;;;3.50;;
4166;SDS011;2097;51.104;7.150;2022-12-07T01:00:49;61.50;;;3.33;;
4166;SDS011;2097;51.104;7.150;2022-12-07T01:03:16;66.00;;;3.80;;
4166;SDS011;2097;51.104;7.150;2022-12-07T01:05:53;64.20;;;3.70;;
4166;SDS011;2097;51.104;7.150;2022-12-07T01:08:22;61.20;;;3.23;;
4166;SDS011;2097;51.104;7.150;2022-12-07T01:10:56;62.10;;;3.80;;
4166;SDS011;2097;51.104;7.150;2022-12-07T01:13:24;59.87;;;3.10;;
4166;SDS011;2097;51.104;7.150;2022-12-07T01:15:55;61.00;;;3.30;;
4166;SDS011;2097;51.104;7.150;2022-12-07T01:18:24;64.60;;;3.53;;
4166;SDS011;2097;51.104;7.150;2022-12-07T01:20:57;66.10;;;3.80;;
4166;SDS011;2097;51.104;7.150;2022-12-07T01:23:24;68.57;;;4.67;;
4166;SDS011;2097;51.104;7.150;2022-12-07T01:25:53;67.53;;;4.23;;
4166;SDS011;2097;51.104;7.150;2022-12-07T01:28:21;68.73;;;4.27;;
4166;SDS011;2097;51.104;7.150;2022-12-07T01:30:55;61.60;;;3.77;;
4166;SDS011;2097;51.104;7.150;2022-12-07T01:33:23;60.97;;;3.53;;
4166;SDS011;2097;51.104;7.150;2022-12-07T01:35:50;64.40;;;3.83;;
4166;SDS011;2097;51.104;7.150;2022-12-07T01:38:17;63.90;;;3.60;;
4166;SDS011;2097;51.104;7.150;2022-12-07T01:40:44;60.50;;;3.17;;
4166;SDS011;2097;51.104;7.150;2022-12-07T01:43:13;67.40;;;3.80;;
4166;SDS011;2097;51.104;7.150;2022-12-07T01:45:43;63.50;;;3.60;;
4166;SDS011;2097;51.104;7.150;2022-12-07T01:48:13;62.07;;;3.60;;
4166;SDS011;2097;51.104;7.150;2022-12-07T01:50:42;66.20;;;3.90;;
4166;SDS011;2097;51.104;7.150;2022-12-07T01:53:11;63.50;;;3.77;;
4166;SDS011;2097;51.104;7.150;2022-12-07T01:55:40;66.43;;;4.07;;
4166;SDS011;2097;51.104;7.150;2022-12-07T01:58:10;66.90;;;3.53;;
4166;SDS011;2097;51.104;7.150;2022-12-07T02:00:38;69.87;;;4.07;;
4166;SDS011;2097;51.104;7.150;2022-12-07T02:03:08;70.53;;;5.13;;
4166;SDS011;2097;51.104;7.150;2022-12-07T02:05:40;65.90;;;4.20;;
4166;SDS011;2097;51.104;7.150;2022-12-07T02:08:08;72.00;;;4.50;;
4166;SDS011;2097;51.104;7.150;2022-12-07T02:10:36;64.37;;;3.90;;
4166;SDS011;2097;51.104;7.150;2022-12-07T02:13:04;66.00;;;4.13;;
4166;SDS011;2097;51.104;7.150;2022-12-07T02:15:38;66.70;;;4.10;;
4166;SDS011;2097;51.104;7.150;2022-12-07T02:18:25;71.80;;;4.90;;
4166;SDS011;2097;51.104;7.150;2022-12-07T02:21:11;72.90;;;4.50;;
4166;SDS011;2097;51.104;7.150;2022-12-07T02:23:44;74.10;;;5.77;;
4166;SDS011;2097;51.104;7.150;2022-12-07T02:29:29;60.87;;;2.90;;
4166;SDS011;2097;51.104;7.150;2022-12-07T02:32:04;68.00;;;4.73;;
4166;SDS011;2097;51.104;7.150;2022-12-07T02:34:39;70.47;;;4.03;;
4166;SDS011;2097;51.104;7.150;2022-12-07T02:37:17;69.80;;;4.07;;
4166;SDS011;2097;51.104;7.150;2022-12-07T02:39:53;70.73;;;4.50;;
4166;SDS011;2097;51.104;7.150;2022-12-07T02:42:24;69.87;;;4.63;;
4166;SDS011;2097;51.104;7.150;2022-12-07T02:44:58;69.60;;;4.83;;
4166;SDS011;2097;51.104;7.150;2022-12-07T02:47:26;65.60;;;4.30;;
4166;SDS011;2097;51.104;7.150;2022-12-07T02:49:56;68.47;;;4.00;;
4166;SDS011;2097;51.104;7.150;2022-12-07T02:52:23;82.93;;;5.60;;
4166;SDS011;2097;51.104;7.150;2022-12-07T02:54:50;69.40;;;3.83;;
4166;SDS011;2097;51.104;7.150;2022-12-07T02:57:23;63.27;;;3.97;;
4166;SDS011;2097;51.104;7.150;2022-12-07T03:00:03;77.23;;;5.20;;
4166;SDS011;2097;51.104;7.150;2022-12-07T03:02:36;68.60;;;4.50;;
4166;SDS011;2097;51.104;7.150;2022-12-07T03:05:15;69.23;;;4.53;;
4166;SDS011;2097;51.104;7.150;2022-12-07T03:07:52;69.30;;;4.33;;
4166;SDS011;2097;51.104;7.150;2022-12-07T03:10:27;61.37;;;3.10;;
4166;SDS011;2097;51.104;7.150;2022-12-07T03:13:07;66.83;;;4.23;;
4166;SDS011;2097;51.104;7.150;2022-12-07T03:15:41;65.27;;;3.70;;
4166;SDS011;2097;51.104;7.150;2022-12-07T03:18:12;65.27;;;3.83;;
4166;SDS011;2097;51.104;7.150;2022-12-07T03:20:42;72.23;;;4.50;;
4166;SDS011;2097;51.104;7.150;2022-12-07T03:23:11;64.70;;;4.17;;
4166;SDS011;2097;51.104;7.150;2022-12-07T03:25:39;60.97;;;3.33;;
4166;SDS011;2097;51.104;7.150;2022-12-07T03:28:09;64.47;;;3.60;;
4166;SDS011;2097;51.104;7.150;2022-12-07T03:30:42;61.07;;;3.17;;
4166;SDS011;2097;51.104;7.150;2022-12-07T03:33:13;62.20;;;3.40;;
4166;SDS011;2097;51.104;7.150;2022-12-07T03:35:47;67.90;;;3.40;;
4166;SDS011;2097;51.104;7.150;2022-12-07T03:38:20;61.40;;;3.20;;
4166;SDS011;2097;51.104;7.150;2022-12-07T03:40:52;59.93;;;3.27;;
4166;SDS011;2097;51.104;7.150;2022-12-07T03:43:25;60.40;;;3.30;;
4166;SDS011;2097;51.104;7.150;2022-12-07T03:45:56;60.70;;;2.97;;
4166;SDS011;2097;51.104;7.150;2022-12-07T03:48:34;61.40;;;3.80;;
4166;SDS011;2097;51.104;7.150;2022-12-07T03:51:07;60.23;;;2.90;;
4166;SDS011;2097;51.104;7.150;2022-12-07T03:53:40;59.77;;;2.70;;
4166;SDS011;2097;51.104;7.150;2022-12-07T03:56:13;60.27;;;3.10;;
4166;SDS011;2097;51.104;7.150;2022-12-07T03:58:41;59.97;;;2.90;;
4166;SDS011;2097;51.104;7.150;2022-12-07T04:01:10;63.60;;;3.10;;
4166;SDS011;2097;51.104;7.150;2022-12-07T04:03:37;59.50;;;2.80;;
4166;SDS011;2097;51.104;7.150;2022-12-07T04:06:04;59.80;;;2.77;;
4166;SDS011;2097;51.104;7.150;2022-12-07T04:08:31;60.20;;;3.00;;
4166;SDS011;2097;51.104;7.150;2022-12-07T04:13:26;60.47;;;3.10;;
4166;SDS011;2097;51.104;7.150;2022-12-07T04:15:53;60.30;;;3.00;;
4166;SDS011;2097;51.104;7.150;2022-12-07T04:18:21;60.10;;;2.93;;
4166;SDS011;2097;51.104;7.150;2022-12-07T04:20:48;61.10;;;3.00;;
4166;SDS011;2097;51.104;7.150;2022-12-07T04:23:15;60.50;;;3.27;;
4166;SDS011;2097;51.104;7.150;2022-12-07T04:25:41;60.07;;;2.80;;
4166;SDS011;2097;51.104;7.150;2022-12-07T04:28:09;60.40;;;2.97;;
4166;SDS011;2097;51.104;7.150;2022-12-07T04:30:36;60.17;;;2.80;;
4166;SDS011;2097;51.104;7.150;2022-12-07T04:33:03;59.77;;;2.67;;
4166;SDS011;2097;51.104;7.150;2022-12-07T04:35:31;61.00;;;3.40;;
4166;SDS011;2097;51.104;7.150;2022-12-07T04:37:58;60.10;;;2.87;;
4166;SDS011;2097;51.104;7.150;2022-12-07T04:40:25;60.40;;;3.07;;
4166;SDS011;2097;51.104;7.150;2022-12-07T04:42:51;60.57;;;2.43;;
4166;SDS011;2097;51.104;7.150;2022-12-07T04:45:18;60.07;;;2.60;;
4166;SDS011;2097;51.104;7.150;2022-12-07T04:47:45;60.30;;;2.43;;
4166;SDS011;2097;51.104;7.150;2022-12-07T04:50:12;60.20;;;2.70;;
4166;SDS011;2097;51.104;7.150;2022-12-07T04:52:40;59.77;;;2.77;;
4166;SDS011;2097;51.104;7.150;2022-12-07T04:55:07;59.97;;;2.70;;
4166;SDS011;2097;51.104;7.150;2022-12-07T04:57:34;60.20;;;2.90;;
4166;SDS011;2097;51.104;7.150;2022-12-07T05:00:01;60.10;;;3.00;;
4166;SDS011;2097;51.104;7.150;2022-12-07T05:02:28;60.60;;;3.10;;
4166;SDS011;2097;51.104;7.150;2022-12-07T05:04:54;59.87;;;2.67;;
4166;SDS011;2097;51.104;7.150;2022-12-07T05:07:21;59.97;;;2.53;;
4166;SDS011;2097;51.104;7.150;2022-12-07T05:09:49;60.07;;;2.80;;
4166;SDS011;2097;51.104;7.150;2022-12-07T05:12:16;60.07;;;2.60;;
4166;SDS011;2097;51.104;7.150;2022-12-07T05:14:43;61.00;;;3.07;;
4166;SDS011;2097;51.104;7.150;2022-12-07T05:17:10;60.40;;;2.90;;
4166;SDS011;2097;51.104;7.150;2022-12-07T05:19:37;60.00;;;2.70;;
4166;SDS011;2097;51.104;7.150;2022-12-07T05:22:03;59.87;;;2.77;;
4166;SDS011;2097;51.104;7.150;2022-12-07T05:24:30;59.83;;;2.40;;
4166;SDS011;2097;51.104;7.150;2022-12-07T05:26:58;59.87;;;2.47;;
4166;SDS011;2097;51.104;7.150;2022-12-07T05:29:25;60.17;;;2.70;;
4166;SDS011;2097;51.104;7.150;2022-12-07T05:31:52;59.97;;;2.60;;
4166;SDS011;2097;51.104;7.150;2022-12-07T05:34:19;59.60;;;2.43;;
4166;SDS011;2097;51.104;7.150;2022-12-07T05:36:46;60.00;;;2.53;;
4166;SDS011;2097;51.104;7.150;2022-12-07T05:39:12;59.63;;;2.67;;
4166;SDS011;2097;51.104;7.150;2022-12-07T05:41:39;59.90;;;2.67;;
4166;SDS011;2097;51.104;7.150;2022-12-07T05:44:25;59.87;;;2.70;;
4166;SDS011;2097;51.104;7.150;2022-12-07T05:46:52;60.07;;;2.70;;
4166;SDS011;2097;51.104;7.150;2022-12-07T05:49:19;59.87;;;2.53;;
4166;SDS011;2097;51.104;7.150;2022-12-07T05:51:45;60.50;;;2.80;;
4166;SDS011;2097;51.104;7.150;2022-12-07T05:54:12;59.77;;;2.73;;
4166;SDS011;2097;51.104;7.150;2022-12-07T05:56:39;60.00;;;2.60;;
4166;SDS011;2097;51.104;7.150;2022-12-07T05:59:06;60.93;;;2.90;;
4166;SDS011;2097;51.104;7.150;2022-12-07T06:01:49;60.07;;;2.90;;
4166;SDS011;2097;51.104;7.150;2022-12-07T06:04:16;59.87;;;3.00;;
4166;SDS011;2097;51.104;7.150;2022-12-07T06:06:44;59.87;;;2.67;;
4166;SDS011;2097;51.104;7.150;2022-12-07T06:09:11;59.93;;;3.13;;
4166;SDS011;2097;51.104;7.150;2022-12-07T06:11:38;60.77;;;2.97;;
4166;SDS011;2097;51.104;7.150;2022-12-07T06:14:24;60.23;;;3.10;;
4166;SDS011;2097;51.104;7.150;2022-12-07T06:16:52;60.43;;;2.57;;
4166;SDS011;2097;51.104;7.150;2022-12-07T06:19:19;59.93;;;2.80;;
4166;SDS011;2097;51.104;7.150;2022-12-07T06:21:46;59.90;;;2.80;;
4166;SDS011;2097;51.104;7.150;2022-12-07T06:24:13;60.20;;;2.87;;
4166;SDS011;2097;51.104;7.150;2022-12-07T06:26:41;60.00;;;2.87;;
4166;SDS011;2097;51.104;7.150;2022-12-07T06:29:08;60.17;;;2.93;;
4166;SDS011;2097;51.104;7.150;2022-12-07T06:31:36;59.93;;;2.73;;
4166;SDS011;2097;51.104;7.150;2022-12-07T06:34:05;60.60;;;3.07;;
4166;SDS011;2097;51.104;7.150;2022-12-07T06:36:35;60.20;;;2.90;;
4166;SDS011;2097;51.104;7.150;2022-12-07T06:39:02;60.17;;;2.97;;
4166;SDS011;2097;51.104;7.150;2022-12-07T06:41:29;60.50;;;3.00;;
4166;SDS011;2097;51.104;7.150;2022-12-07T06:43:56;59.90;;;2.83;;
4166;SDS011;2097;51.104;7.150;2022-12-07T06:46:23;59.60;;;2.73;;
4166;SDS011;2097;51.104;7.150;2022-12-07T06:48:50;60.00;;;2.77;;
4166;SDS011;2097;51.104;7.150;2022-12-07T06:51:18;60.30;;;2.90;;
4166;SDS011;2097;51.104;7.150;2022-12-07T06:53:45;59.77;;;2.80;;
4166;SDS011;2097;51.104;7.150;2022-12-07T06:56:12;59.90;;;2.67;;
4166;SDS011;2097;51.104;7.150;2022-12-07T06:58:39;59.67;;;2.80;;
4166;SDS011;2097;51.104;7.150;2022-12-07T07:01:08;60.20;;;2.67;;
4166;SDS011;2097;51.104;7.150;2022-12-07T07:03:35;60.80;;;2.80;;
4166;SDS011;2097;51.104;7.150;2022-12-07T07:06:02;60.07;;;2.77;;
4166;SDS011;2097;51.104;7.150;2022-12-07T07:08:31;63.87;;;2.53;;
4166;SDS011;2097;51.104;7.150;2022-12-07T07:10:57;59.70;;;2.90;;
4166;SDS011;2097;51.104;7.150;2022-12-07T07:13:24;60.13;;;2.60;;
4166;SDS011;2097;51.104;7.150;2022-12-07T07:15:51;59.67;;;2.50;;
4166;SDS011;2097;51.104;7.150;2022-12-07T07:18:18;59.97;;;2.60;;
4166;SDS011;2097;51.104;7.150;2022-12-07T07:20:45;60.27;;;2.60;;
4166;SDS011;2097;51.104;7.150;2022-12-07T07:23:12;60.20;;;2.83;;
4166;SDS011;2097;51.104;7.150;2022-12-07T07:25:40;59.93;;;2.90;;
4166;SDS011;2097;51.104;7.150;2022-12-07T07:28:06;60.20;;;2.87;;
4166;SDS011;2097;51.104;7.150;2022-12-07T07:30:33;61.37;;;2.90;;
4166;SDS011;2097;51.104;7.150;2022-12-07T07:33:01;60.00;;;2.87;;
4166;SDS011;2097;51.104;7.150;2022-12-07T07:35:29;59.87;;;2.87;;
4166;SDS011;2097;51.104;7.150;2022-12-07T07:37:57;62.43;;;2.50;;
4166;SDS011;2097;51.104;7.150;2022-12-07T07:40:25;60.07;;;2.73;;
4166;SDS011;2097;51.104;7.150;2022-12-07T07:42:55;60.60;;;3.20;;
4166;SDS011;2097;51.104;7.150;2022-12-07T07:45:22;60.83;;;3.13;;
4166;SDS011;2097;51.104;7.150;2022-12-07T07:47:50;61.03;;;2.80;;
4166;SDS011;2097;51.104;7.150;2022-12-07T07:50:17;62.23;;;3.10;;
4166;SDS011;2097;51.104;7.150;2022-12-07T07:52:45;60.50;;;2.93;;
4166;SDS011;2097;51.104;7.150;2022-12-07T07:55:12;60.37;;;2.93;;
4166;SDS011;2097;51.104;7.150;2022-12-07T07:57:40;59.90;;;2.77;;
4166;SDS011;2097;51.104;7.150;2022-12-07T08:00:10;60.60;;;3.53;;
4166;SDS011;2097;51.104;7.150;2022-12-07T08:02:39;60.27;;;2.90;;
4166;SDS011;2097;51.104;7.150;2022-12-07T08:05:06;60.30;;;3.20;;
4166;SDS011;2097;51.104;7.150;2022-12-07T08:07:33;60.40;;;3.10;;
4166;SDS011;2097;51.104;7.150;2022-12-07T08:10:00;60.50;;;3.10;;
4166;SDS011;2097;51.104;7.150;2022-12-07T08:12:27;60.30;;;3.00;;
4166;SDS011;2097;51.104;7.150;2022-12-07T08:14:54;59.87;;;2.70;;
4166;SDS011;2097;51.104;7.150;2022-12-07T08:17:22;59.83;;;2.93;;
4166;SDS011;2097;51.104;7.150;2022-12-07T08:19:49;60.20;;;2.87;;
4166;SDS011;2097;51.104;7.150;2022-12-07T08:22:16;59.97;;;3.10;;
4166;SDS011;2097;51.104;7.150;2022-12-07T08:24:43;60.60;;;4.00;;
4166;SDS011;2097;51.104;7.150;2022-12-07T08:27:09;60.17;;;2.90;;
4166;SDS011;2097;51.104;7.150;2022-12-07T08:29:36;60.27;;;2.97;;
4166;SDS011;2097;51.104;7.150;2022-12-07T08:32:03;60.00;;;2.83;;
4166;SDS011;2097;51.104;7.150;2022-12-07T08:34:31;60.07;;;3.00;;
4166;SDS011;2097;51.104;7.150;2022-12-07T08:36:58;60.40;;;3.17;;
4166;SDS011;2097;51.104;7.150;2022-12-07T08:39:25;60.60;;;2.73;;
4166;SDS011;2097;51.104;7.150;2022-12-07T08:41:52;59.83;;;2.77;;
4166;SDS011;2097;51.104;7.150;2022-12-07T08:44:19;61.23;;;2.97;;
4166;SDS011;2097;51.104;7.150;2022-12-07T08:46:46;64.77;;;3.20;;
4166;SDS011;2097;51.104;7.150;2022-12-07T08:49:16;61.77;;;3.00;;
4166;SDS011;2097;51.104;7.150;2022-12-07T08:51:47;60.97;;;3.40;;
4166;SDS011;2097;51.104;7.150;2022-12-07T08:54:15;60.37;;;3.00;;
4166;SDS011;2097;51.104;7.150;2022-12-07T08:56:44;60.70;;;3.27;;
4166;SDS011;2097;51.104;7.150;2022-12-07T08:59:12;60.40;;;2.70;;
4166;SDS011;2097;51.104;7.150;2022-12-07T09:01:40;60.00;;;2.90;;
4166;SDS011;2097;51.104;7.150;2022-12-07T09:04:07;60.13;;;2.97;;
4166;SDS011;2097;51.104;7.150;2022-12-07T09:06:33;59.93;;;2.63;;
4166;SDS011;2097;51.104;7.150;2022-12-07T09:09:02;59.90;;;2.67;;
4166;SDS011;2097;51.104;7.150;2022-12-07T09:11:30;60.20;;;2.77;;
4166;SDS011;2097;51.104;7.150;2022-12-07T09:13:57;60.20;;;2.70;;
4166;SDS011;2097;51.104;7.150;2022-12-07T09:16:24;60.53;;;2.70;;
4166;SDS011;2097;51.104;7.150;2022-12-07T09:18:50;59.67;;;2.37;;
4166;SDS011;2097;51.104;7.150;2022-12-07T09:21:17;59.87;;;2.57;;
4166;SDS011;2097;51.104;7.150;2022-12-07T09:23:44;60.60;;;2.90;;
4166;SDS011;2097;51.104;7.150;2022-12-07T09:26:12;60.37;;;2.50;;
4166;SDS011;2097;51.104;7.150;2022-12-07T09:28:39;59.97;;;2.90;;
4166;SDS011;2097;51.104;7.150;2022-12-07T09:31:06;59.97;;;2.63;;
4166;SDS011;2097;51.104;7.150;2022-12-07T09:33:33;59.77;;;2.40;;
4166;SDS011;2097;51.104;7.150;2022-12-07T09:35:59;60.37;;;2.80;;
4166;SDS011;2097;51.104;7.150;2022-12-07T09:38:27;60.40;;;3.03;;
4166;SDS011;2097;51.104;7.150;2022-12-07T09:40:55;59.97;;;2.50;;
4166;SDS011;2097;51.104;7.150;2022-12-07T09:43:24;60.00;;;2.60;;
4166;SDS011;2097;51.104;7.150;2022-12-07T09:45:52;59.83;;;2.50;;
4166;SDS011;2097;51.104;7.150;2022-12-07T09:48:22;59.83;;;2.70;;
4166;SDS011;2097;51.104;7.150;2022-12-07T09:50:54;60.00;;;2.63;;
4166;SDS011;2097;51.104;7.150;2022-12-07T09:53:25;59.90;;;2.73;;
4166;SDS011;2097;51.104;7.150;2022-12-07T09:55:54;60.00;;;2.43;;
4166;SDS011;2097;51.104;7.150;2022-12-07T09:58:22;60.60;;;2.40;;
4166;SDS011;2097;51.104;7.150;2022-12-07T10:00:53;60.70;;;2.70;;
4166;SDS011;2097;51.104;7.150;2022-12-07T10:03:22;60.00;;;2.43;;
4166;SDS011;2097;51.104;7.150;2022-12-07T10:05:50;60.17;;;2.50;;
4166;SDS011;2097;51.104;7.150;2022-12-07T10:08:18;61.20;;;3.00;;
4166;SDS011;2097;51.104;7.150;2022-12-07T10:10:46;61.20;;;2.70;;
4166;SDS011;2097;51.104;7.150;2022-12-07T10:13:18;59.77;;;2.70;;
4166;SDS011;2097;51.104;7.150;2022-12-07T10:15:49;60.20;;;2.70;;
4166;SDS011;2097;51.104;7.150;2022-12-07T10:18:19;60.20;;;2.70;;
4166;SDS011;2097;51.104;7.150;2022-12-07T10:20:48;60.60;;;2.73;;
4166;SDS011;2097;51.104;7.150;2022-12-07T10:23:15;60.30;;;2.93;;
4166;SDS011;2097;51.104;7.150;2022-12-07T10:25:44;59.73;;;2.70;;
4166;SDS011;2097;51.104;7.150;2022-12-07T10:28:14;59.77;;;2.67;;
4166;SDS011;2097;51.104;7.150;2022-12-07T10:30:46;59.87;;;2.57;;
4166;SDS011;2097;51.104;7.150;2022-12-07T10:33:29;60.20;;;2.73;;
4166;SDS011;2097;51.104;7.150;2022-12-07T10:35:59;60.20;;;2.67;;
4166;SDS011;2097;51.104;7.150;2022-12-07T10:38:28;59.83;;;2.70;;
4166;SDS011;2097;51.104;7.150;2022-12-07T10:41:04;60.47;;;2.70;;
4166;SDS011;2097;51.104;7.150;2022-12-07T10:43:31;59.97;;;2.80;;
4166;SDS011;2097;51.104;7.150;2022-12-07T10:49:01;59.93;;;2.63;;
4166;SDS011;2097;51.104;7.150;2022-12-07T10:51:40;60.07;;;2.50;;
4166;SDS011;2097;51.104;7.150;2022-12-07T10:54:14;60.00;;;2.80;;
4166;SDS011;2097;51.104;7.150;2022-12-07T10:56:53;60.97;;;3.00;;
4166;SDS011;2097;51.104;7.150;2022-12-07T10:59:43;60.00;;;2.57;;
4166;SDS011;2097;51.104;7.150;2022-12-07T11:02:33;60.30;;;3.07;;
4166;SDS011;2097;51.104;7.150;2022-12-07T11:05:12;59.77;;;2.57;;
4166;SDS011;2097;51.104;7.150;2022-12-07T11:07:47;59.87;;;2.90;;
4166;SDS011;2097;51.104;7.150;2022-12-07T11:10:22;60.37;;;2.77;;
4166;SDS011;2097;51.104;7.150;2022-12-07T11:13:03;59.97;;;2.80;;
4166;SDS011;2097;51.104;7.150;2022-12-07T11:15:44;60.70;;;2.30;;
4166;SDS011;2097;51.104;7.150;2022-12-07T11:18:21;60.03;;;2.77;;
4166;SDS011;2097;51.104;7.150;2022-12-07T11:20:55;60.27;;;2.70;;
4166;SDS011;2097;51.104;7.150;2022-12-07T11:23:38;60.37;;;2.70;;
4166;SDS011;2097;51.104;7.150;2022-12-07T11:26:13;60.67;;;2.70;;
4166;SDS011;2097;51.104;7.150;2022-12-07T11:29:00;60.10;;;2.57;;
4166;SDS011;2097;51.104;7.150;2022-12-07T11:31:36;61.10;;;2.50;;
4166;SDS011;2097;51.104;7.150;2022-12-07T11:34:15;60.67;;;2.73;;
4166;SDS011;2097;51.104;7.150;2022-12-07T11:36:49;60.50;;;2.80;;
4166;SDS011;2097;51.104;7.150;2022-12-07T11:39:22;59.87;;;2.43;;
4166;SDS011;2097;51.104;7.150;2022-12-07T11:41:55;60.40;;;2.60;;
4166;SDS011;2097;51.104;7.150;2022-12-07T11:44:30;60.40;;;2.80;;
4166;SDS011;2097;51.104;7.150;2022-12-07T11:47:04;60.50;;;2.63;;
4166;SDS011;2097;51.104;7.150;2022-12-07T11:49:40;59.80;;;2.30;;
4166;SDS011;2097;51.104;7.150;2022-12-07T11:52:13;60.03;;;2.70;;
4166;SDS011;2097;51.104;7.150;2022-12-07T11:54:47;60.00;;;2.60;;
4166;SDS011;2097;51.104;7.150;2022-12-07T11:57:18;59.87;;;2.47;;
4166;SDS011;2097;51.104;7.150;2022-12-07T11:59:52;60.30;;;2.90;;
4166;SDS011;2097;51.104;7.150;2022-12-07T12:02:27;59.80;;;2.60;;
4166;SDS011;2097;51.104;7.150;2022-12-07T12:05:05;60.27;;;2.33;;
4166;SDS011;2097;51.104;7.150;2022-12-07T12:07:40;59.67;;;2.33;;
4166;SDS011;2097;51.104;7.150;2022-12-07T12:10:13;59.97;;;2.70;;
4166;SDS011;2097;51.104;7.150;2022-12-07T12:12:52;59.77;;;2.50;;
4166;SDS011;2097;51.104;7.150;2022-12-07T12:15:37;59.90;;;2.40;;
4166;SDS011;2097;51.104;7.150;2022-12-07T12:18:27;59.90;;;2.50;;
4166;SDS011;2097;51.104;7.150;2022-12-07T12:21:08;60.07;;;2.47;;
4166;SDS011;2097;51.104;7.150;2022-12-07T12:23:40;59.80;;;2.17;;
4166;SDS011;2097;51.104;7.150;2022-12-07T12:26:14;59.93;;;2.60;;
4166;SDS011;2097;51.104;7.150;2022-12-07T12:28:49;59.93;;;2.40;;
4166;SDS011;2097;51.104;7.150;2022-12-07T12:31:30;59.87;;;2.63;;
4166;SDS011;2097;51.104;7.150;2022-12-07T12:34:02;59.67;;;2.43;;
4166;SDS011;2097;51.104;7.150;2022-12-07T12:39:14;60.10;;;2.57;;
4166;SDS011;2097;51.104;7.150;2022-12-07T12:41:53;60.00;;;2.50;;
4166;SDS011;2097;51.104;7.150;2022-12-07T12:47:43;60.13;;;2.47;;
4166;SDS011;2097;51.104;7.150;2022-12-07T12:50:21;60.00;;;2.43;;
4166;SDS011;2097;51.104;7.150;2022-12-07T12:58:50;60.03;;;2.17;;
4166;SDS011;2097;51.104;7.150;2022-12-07T13:01:50;60.10;;;2.40;;
4166;SDS011;2097;51.104;7.150;2022-12-07T13:22:44;60.30;;;2.63;;
4166;SDS011;2097;51.104;7.150;2022-12-07T13:25:18;59.87;;;2.50;;
4166;SDS011;2097;51.104;7.150;2022-12-07T13:27:55;60.17;;;2.57;;
4166;SDS011;2097;51.104;7.150;2022-12-07T13:30:24;59.87;;;2.30;;
4166;SDS011;2097;51.104;7.150;2022-12-07T13:32:52;60.03;;;2.20;;
4166;SDS011;2097;51.104;7.150;2022-12-07T13:35:30;61.50;;;2.40;;
4166;SDS011;2097;51.104;7.150;2022-12-07T13:37:58;59.57;;;2.60;;
4166;SDS011;2097;51.104;7.150;2022-12-07T13:40:25;60.17;;;2.70;;
4166;SDS011;2097;51.104;7.150;2022-12-07T13:43:00;59.67;;;2.40;;
4166;SDS011;2097;51.104;7.150;2022-12-07T13:45:29;59.77;;;2.37;;
4166;SDS011;2097;51.104;7.150;2022-12-07T13:48:20;59.87;;;2.30;;
4166;SDS011;2097;51.104;7.150;2022-12-07T13:50:54;60.27;;;2.73;;
4166;SDS011;2097;51.104;7.150;2022-12-07T13:53:22;61.03;;;2.50;;
4166;SDS011;2097;51.104;7.150;2022-12-07T13:55:49;60.07;;;2.40;;
4166;SDS011;2097;51.104;7.150;2022-12-07T13:58:18;59.67;;;2.40;;
4166;SDS011;2097;51.104;7.150;2022-12-07T14:00:45;59.73;;;2.50;;
4166;SDS011;2097;51.104;7.150;2022-12-07T14:03:31;60.10;;;2.40;;
4166;SDS011;2097;51.104;7.150;2022-12-07T14:06:03;59.77;;;2.27;;
4166;SDS011;2097;51.104;7.150;2022-12-07T14:08:32;60.07;;;2.50;;
4166;SDS011;2097;51.104;7.150;2022-12-07T14:10:59;59.80;;;2.07;;
4166;SDS011;2097;51.104;7.150;2022-12-07T14:13:29;59.83;;;2.37;;
4166;SDS011;2097;51.104;7.150;2022-12-07T14:16:00;59.63;;;2.17;;
4166;SDS011;2097;51.104;7.150;2022-12-07T14:18:28;60.00;;;2.60;;
4166;SDS011;2097;51.104;7.150;2022-12-07T14:21:03;59.97;;;2.50;;
4166;SDS011;2097;51.104;7.150;2022-12-07T14:23:30;60.60;;;2.60;;
4166;SDS011;2097;51.104;7.150;2022-12-07T14:26:05;62.13;;;2.60;;
4166;SDS011;2097;51.104;7.150;2022-12-07T14:28:36;59.87;;;2.50;;
4166;SDS011;2097;51.104;7.150;2022-12-07T14:31:07;60.27;;;2.50;;
4166;SDS011;2097;51.104;7.150;2022-12-07T14:33:37;60.20;;;2.37;;
4166;SDS011;2097;51.104;7.150;2022-12-07T14:36:05;60.17;;;2.47;;
4166;SDS011;2097;51.104;7.150;2022-12-07T14:38:32;60.10;;;2.80;;
4166;SDS011;2097;51.104;7.150;2022-12-07T14:40:59;60.03;;;2.80;;
4166;SDS011;2097;51.104;7.150;2022-12-07T14:43:41;60.27;;;2.77;;
4166;SDS011;2097;51.104;7.150;2022-12-07T14:46:08;59.77;;;2.40;;
4166;SDS011;2097;51.104;7.150;2022-12-07T14:48:35;60.10;;;2.67;;
4166;SDS011;2097;51.104;7.150;2022-12-07T14:51:02;60.57;;;2.40;;
4166;SDS011;2097;51.104;7.150;2022-12-07T14:53:31;60.00;;;2.50;;
4166;SDS011;2097;51.104;7.150;2022-12-07T14:56:01;60.27;;;2.57;;
4166;SDS011;2097;51.104;7.150;2022-12-07T14:58:30;59.87;;;2.30;;
4166;SDS011;2097;51.104;7.150;2022-12-07T15:00:58;60.17;;;2.53;;
4166;SDS011;2097;51.104;7.150;2022-12-07T15:03:27;59.87;;;2.40;;
4166;SDS011;2097;51.104;7.150;2022-12-07T15:05:54;60.20;;;2.63;;
4166;SDS011;2097;51.104;7.150;2022-12-07T15:08:21;60.20;;;2.47;;
4166;SDS011;2097;51.104;7.150;2022-12-07T15:10:48;60.10;;;2.40;;
4166;SDS011;2097;51.104;7.150;2022-12-07T15:13:15;59.87;;;2.70;;
4166;SDS011;2097;51.104;7.150;2022-12-07T15:15:55;59.80;;;2.37;;
4166;SDS011;2097;51.104;7.150;2022-12-07T15:18:24;60.40;;;2.70;;
4166;SDS011;2097;51.104;7.150;2022-12-07T15:20:50;59.80;;;2.57;;
4166;SDS011;2097;51.104;7.150;2022-12-07T15:23:17;59.87;;;2.70;;
4166;SDS011;2097;51.104;7.150;2022-12-07T15:25:45;64.33;;;2.40;;
4166;SDS011;2097;51.104;7.150;2022-12-07T15:28:13;59.77;;;2.33;;
4166;SDS011;2097;51.104;7.150;2022-12-07T15:30:41;59.73;;;2.60;;
4166;SDS011;2097;51.104;7.150;2022-12-07T15:33:09;59.70;;;2.50;;
4166;SDS011;2097;51.104;7.150;2022-12-07T15:35:39;59.77;;;2.50;;
4166;SDS011;2097;51.104;7.150;2022-12-07T15:38:06;59.80;;;2.63;;
4166;SDS011;2097;51.104;7.150;2022-12-07T15:40:33;60.30;;;2.73;;
4166;SDS011;2097;51.104;7.150;2022-12-07T15:43:00;59.60;;;2.53;;
4166;SDS011;2097;51.104;7.150;2022-12-07T15:45:27;61.53;;;2.77;;
4166;SDS011;2097;51.104;7.150;2022-12-07T15:47:53;60.13;;;2.60;;
4166;SDS011;2097;51.104;7.150;2022-12-07T15:50:21;59.87;;;2.50;;
4166;SDS011;2097;51.104;7.150;2022-12-07T15:52:49;60.07;;;2.70;;
4166;SDS011;2097;51.104;7.150;2022-12-07T15:55:16;60.07;;;2.93;;
4166;SDS011;2097;51.104;7.150;2022-12-07T15:57:43;61.80;;;2.60;;